Time;durP1;ratioP1;P1;durP2;ratioP2;P2;SDS_P1;SDS_P2;PMS_P1;PMS_P2;Temp;Humidity;BMP_temperature;BMP_pressure;BME280_temperature;BME280_humidity;BME280_pressure;Samples;Min_cycle;Max_cycle;Signal;HPM_P1;HPM_P2
2023/03/03 00:00:37;;;;;;;0.20;0.20;;;0.60;99.90;;;;;;5058512;28;20040;-72
2023/03/03 00:03:07;;;;;;;0.20;0.20;;;0.50;99.90;;;;;;5058105;28;20021;-72
2023/03/03 00:05:33;;;;;;;0.20;0.20;;;0.50;99.90;;;;;;5057924;28;20025;-72
2023/03/03 00:07:59;;;;;;;0.30;0.30;;;0.30;99.90;;;;;;5058341;28;20032;-72
2023/03/03 00:10:24;;;;;;;0.20;0.20;;;0.20;99.90;;;;;;5058194;28;20044;-72
2023/03/03 00:12:50;;;;;;;0.20;0.20;;;0.10;99.90;;;;;;5058283;28;20032;-72
2023/03/03 00:15:21;;;;;;;0.15;0.15;;;0.00;99.90;;;;;;5057797;28;20478;-72
2023/03/03 00:17:47;;;;;;;0.20;0.20;;;0.00;99.90;;;;;;5058203;28;20051;-72
2023/03/03 00:20:35;;;;;;;0.20;0.20;;;-0.10;99.90;;;;;;5057909;28;20478;-72
2023/03/03 00:23:21;;;;;;;0.20;0.20;;;-0.30;99.90;;;;;;5057934;28;20025;-72
2023/03/03 00:25:49;;;;;;;0.20;0.20;;;-0.40;99.90;;;;;;5040961;28;20059;-72
2023/03/03 00:28:23;;;;;;;0.20;0.20;;;-0.50;99.90;;;;;;5057751;28;20036;-72
2023/03/03 00:30:49;;;;;;;0.25;0.25;;;-0.60;99.90;;;;;;5058416;28;20056;-72
2023/03/03 00:33:27;;;;;;;0.30;0.30;;;-0.70;99.90;;;;;;5057837;28;20044;-72
2023/03/03 00:35:54;;;;;;;0.20;0.20;;;-0.80;99.90;;;;;;5040302;28;20021;-72
2023/03/03 00:38:19;;;;;;;0.20;0.20;;;-0.80;99.90;;;;;;5058093;28;20064;-72
2023/03/03 00:40:46;;;;;;;0.20;0.20;;;-0.80;99.90;;;;;;5057765;28;20026;-72
2023/03/03 00:43:18;;;;;;;0.30;0.30;;;-0.80;99.90;;;;;;5057955;28;20385;-72
2023/03/03 00:45:48;;;;;;;0.30;0.30;;;-0.80;99.90;;;;;;5057875;28;20025;-72
2023/03/03 00:48:51;;;;;;;0.20;0.20;;;-0.80;99.90;;;;;;5057568;28;20067;-72
2023/03/03 00:51:25;;;;;;;0.20;0.20;;;-0.80;99.90;;;;;;5036351;28;20397;-72
2023/03/03 00:53:51;;;;;;;0.20;0.20;;;-0.80;99.90;;;;;;5057644;28;20032;-72
2023/03/03 00:56:16;;;;;;;0.20;0.20;;;-0.80;99.90;;;;;;5057739;28;20021;-72
2023/03/03 00:58:44;;;;;;;0.20;0.20;;;-0.90;99.90;;;;;;5057323;28;20108;-72
2023/03/03 01:01:10;;;;;;;0.20;0.20;;;-1.00;99.90;;;;;;5057921;28;20075;-72
2023/03/03 01:03:35;;;;;;;0.30;0.30;;;-1.00;99.90;;;;;;5057016;28;20013;-72
2023/03/03 01:06:01;;;;;;;0.22;0.22;;;-1.10;99.90;;;;;;5057490;28;20470;-72
2023/03/03 01:08:27;;;;;;;0.20;0.20;;;-1.20;99.90;;;;;;5057165;28;20071;-72
2023/03/03 01:10:55;;;;;;;0.20;0.20;;;-1.30;99.90;;;;;;5053940;28;20025;-72
2023/03/03 01:13:24;;;;;;;0.20;0.20;;;-1.30;99.90;;;;;;5043458;28;20022;-72
2023/03/03 01:15:50;;;;;;;0.17;0.17;;;-1.40;99.90;;;;;;5036923;28;20026;-72
2023/03/03 01:18:16;;;;;;;0.30;0.30;;;-1.30;99.90;;;;;;5019244;28;20029;-72
2023/03/03 01:20:41;;;;;;;0.20;0.20;;;-1.30;99.90;;;;;;5036778;28;20030;-72
2023/03/03 01:23:07;;;;;;;0.20;0.20;;;-1.30;99.90;;;;;;5036835;28;20025;-72
2023/03/03 01:25:35;;;;;;;0.30;0.30;;;-1.30;99.90;;;;;;5038008;28;20125;-72
2023/03/03 01:28:02;;;;;;;0.13;0.13;;;-1.30;99.90;;;;;;5056499;28;20029;-72
2023/03/03 01:30:27;;;;;;;0.20;0.20;;;-1.30;99.90;;;;;;5038969;28;20028;-72
2023/03/03 01:32:53;;;;;;;0.20;0.20;;;-1.30;99.90;;;;;;5055786;28;20025;-72
2023/03/03 01:35:19;;;;;;;0.20;0.20;;;-1.10;99.90;;;;;;5056961;28;20094;-72
2023/03/03 01:37:45;;;;;;;0.20;0.20;;;-1.20;99.90;;;;;;5056033;28;20548;-72
2023/03/03 01:40:18;;;;;;;0.20;0.20;;;-1.20;99.90;;;;;;5056279;28;20025;-72
2023/03/03 01:42:44;;;;;;;0.20;0.20;;;-1.30;99.90;;;;;;5056068;28;20025;-72
2023/03/03 01:45:21;;;;;;;0.30;0.30;;;-1.20;99.90;;;;;;5038610;28;20037;-72
2023/03/03 01:48:08;;;;;;;0.22;0.22;;;-1.30;99.90;;;;;;5056882;28;20021;-72
2023/03/03 01:50:44;;;;;;;0.20;0.20;;;-1.30;99.90;;;;;;5056383;28;20096;-72
2023/03/03 01:53:18;;;;;;;0.30;0.30;;;-1.30;99.90;;;;;;5055975;28;20021;-72
2023/03/03 01:55:44;;;;;;;0.20;0.20;;;-1.30;99.90;;;;;;5055139;28;20487;-72
2023/03/03 01:58:17;;;;;;;0.20;0.20;;;-1.40;99.90;;;;;;5056526;28;20044;-72
2023/03/03 02:00:49;;;;;;;0.20;0.20;;;-1.50;99.90;;;;;;5056433;28;20025;-72
2023/03/03 02:03:15;;;;;;;0.20;0.20;;;-1.60;99.90;;;;;;5055404;28;20482;-72
2023/03/03 02:05:41;;;;;;;0.20;0.20;;;-1.60;99.90;;;;;;5056110;28;20035;-72
2023/03/03 02:08:12;;;;;;;0.22;0.22;;;-1.60;99.90;;;;;;5056061;28;20067;-72
2023/03/03 02:10:39;;;;;;;0.20;0.20;;;-1.50;99.90;;;;;;5041482;28;20457;-72
2023/03/03 02:13:07;;;;;;;0.20;0.20;;;-1.50;99.90;;;;;;5035963;28;20036;-72
2023/03/03 02:15:36;;;;;;;0.20;0.20;;;-1.50;99.90;;;;;;5046368;28;20048;-72
2023/03/03 02:18:17;;;;;;;0.20;0.20;;;-1.30;99.90;;;;;;5055956;28;20025;-72
2023/03/03 02:21:03;;;;;;;0.20;0.20;;;-1.30;99.90;;;;;;5056105;28;20021;-72
2023/03/03 02:23:51;;;;;;;0.30;0.30;;;-1.30;99.90;;;;;;5055675;28;20040;-72
2023/03/03 02:26:21;;;;;;;0.30;0.30;;;-1.20;99.90;;;;;;5056051;28;20065;-72
2023/03/03 02:28:48;;;;;;;0.20;0.20;;;-1.20;99.90;;;;;;5055281;28;20048;-72
2023/03/03 02:31:18;;;;;;;0.30;0.30;;;-1.20;99.90;;;;;;5055886;28;20099;-72
2023/03/03 02:33:46;;;;;;;0.20;0.20;;;-1.20;99.90;;;;;;5055412;28;20063;-72
2023/03/03 02:36:17;;;;;;;0.20;0.20;;;-1.30;99.90;;;;;;5056059;28;20024;-72
2023/03/03 02:38:55;;;;;;;0.30;0.30;;;-1.40;99.90;;;;;;5055967;28;20052;-72
2023/03/03 02:41:32;;;;;;;0.30;0.30;;;-1.40;99.90;;;;;;5055834;28;20025;-72
2023/03/03 02:44:02;;;;;;;0.30;0.30;;;-1.50;99.90;;;;;;5035308;28;20026;-72
2023/03/03 02:46:35;;;;;;;0.30;0.30;;;-1.50;99.90;;;;;;5035168;28;20021;-72
2023/03/03 02:49:02;;;;;;;0.30;0.30;;;-1.50;99.90;;;;;;5035463;28;20029;-72
2023/03/03 02:51:27;;;;;;;0.30;0.30;;;-1.40;99.90;;;;;;5035025;28;20091;-72
2023/03/03 02:53:53;;;;;;;0.30;0.30;;;-1.40;99.90;;;;;;5035574;28;20025;-72
2023/03/03 02:56:18;;;;;;;0.30;0.30;;;-1.20;99.90;;;;;;5034497;28;20027;-72
2023/03/03 02:58:44;;;;;;;0.15;0.15;;;-1.20;99.90;;;;;;5035207;28;20018;-72
2023/03/03 03:01:12;;;;;;;0.20;0.20;;;-1.20;99.90;;;;;;5034751;28;20033;-72
2023/03/03 03:03:38;;;;;;;0.20;0.20;;;-1.20;99.90;;;;;;5042626;28;20032;-72
2023/03/03 03:06:03;;;;;;;0.20;0.20;;;-1.20;99.90;;;;;;5054987;28;20428;-72
2023/03/03 03:08:29;;;;;;;0.20;0.20;;;-1.10;99.90;;;;;;5036678;28;20039;-72
2023/03/03 03:10:56;;;;;;;0.20;0.20;;;-1.10;99.90;;;;;;5054640;28;20509;-72
2023/03/03 03:13:23;;;;;;;0.30;0.30;;;-1.10;99.90;;;;;;5036889;28;20079;-72
2023/03/03 03:15:48;;;;;;;0.30;0.30;;;-1.20;99.90;;;;;;5054726;28;20024;-72
2023/03/03 03:18:14;;;;;;;0.20;0.20;;;-1.10;99.90;;;;;;5054255;28;20025;-72
2023/03/03 03:20:40;;;;;;;0.28;0.28;;;-1.00;99.90;;;;;;5054823;28;20115;-72
2023/03/03 03:23:07;;;;;;;0.30;0.30;;;-0.90;99.90;;;;;;5036809;28;20029;-72
2023/03/03 03:25:32;;;;;;;0.20;0.20;;;-0.90;99.90;;;;;;5054326;28;20024;-72
2023/03/03 03:27:58;;;;;;;0.20;0.20;;;-1.00;99.90;;;;;;5054279;28;20371;-72
2023/03/03 03:30:23;;;;;;;0.30;0.30;;;-1.10;99.90;;;;;;5054696;28;20029;-72
2023/03/03 03:32:49;;;;;;;0.30;0.30;;;-1.20;99.90;;;;;;5054115;28;20029;-72
2023/03/03 03:35:16;;;;;;;0.20;0.20;;;-1.30;99.90;;;;;;5054397;28;20485;-72
2023/03/03 03:37:42;;;;;;;0.20;0.20;;;-1.40;99.90;;;;;;5053914;28;20462;-72
2023/03/03 03:40:08;;;;;;;0.30;0.30;;;-1.50;99.90;;;;;;5054465;28;20043;-72
2023/03/03 03:42:34;;;;;;;0.20;0.20;;;-1.60;99.90;;;;;;5054581;28;20028;-72
2023/03/03 03:44:59;;;;;;;0.10;0.10;;;-1.70;99.90;;;;;;5054044;28;20036;-72
2023/03/03 03:47:25;;;;;;;0.20;0.20;;;-1.70;99.90;;;;;;5054566;28;20025;-72
2023/03/03 03:49:50;;;;;;;0.28;0.28;;;-1.80;99.90;;;;;;5035755;28;20366;-72
2023/03/03 03:52:17;;;;;;;0.20;0.20;;;-1.80;99.90;;;;;;5054385;28;20036;-72
2023/03/03 03:54:42;;;;;;;0.30;0.30;;;-1.90;99.90;;;;;;5054379;28;20364;-72
2023/03/03 03:57:08;;;;;;;0.20;0.20;;;-1.90;99.90;;;;;;5054691;28;20036;-72
2023/03/03 03:59:33;;;;;;;0.28;0.28;;;-1.80;99.90;;;;;;5053340;28;20104;-72
2023/03/03 04:01:59;;;;;;;0.20;0.20;;;-1.80;99.90;;;;;;5054367;28;20035;-72
2023/03/03 04:04:24;;;;;;;0.20;0.20;;;-1.80;99.90;;;;;;5053907;28;20033;-72
2023/03/03 04:06:50;;;;;;;0.20;0.20;;;-1.80;99.90;;;;;;5054293;28;20017;-72
2023/03/03 04:09:15;;;;;;;0.28;0.28;;;-1.80;99.90;;;;;;5053749;28;20052;-72
2023/03/03 04:11:41;;;;;;;0.20;0.20;;;-1.90;99.90;;;;;;5053934;28;20029;-72
2023/03/03 04:14:06;;;;;;;0.30;0.30;;;-1.90;99.90;;;;;;5054165;28;20025;-72
2023/03/03 04:16:32;;;;;;;0.20;0.20;;;-2.00;99.90;;;;;;5054413;28;20029;-72
2023/03/03 04:18:58;;;;;;;0.30;0.30;;;-2.00;99.90;;;;;;5054447;28;20039;-72
2023/03/03 04:21:24;;;;;;;0.13;0.13;;;-1.90;99.90;;;;;;5053992;28;20503;-72
2023/03/03 04:23:49;;;;;;;0.20;0.20;;;-1.80;99.90;;;;;;5053900;28;20056;-72
2023/03/03 04:26:15;;;;;;;0.28;0.28;;;-1.70;99.90;;;;;;5053925;28;20489;-72
2023/03/03 04:28:41;;;;;;;0.20;0.20;;;-1.70;99.90;;;;;;5036201;28;20029;-72
2023/03/03 04:31:06;;;;;;;0.20;0.20;;;-1.70;99.90;;;;;;5036089;28;20483;-72
2023/03/03 04:33:32;;;;;;;0.30;0.30;;;-1.70;99.90;;;;;;5035614;28;20040;-72
2023/03/03 04:35:58;;;;;;;0.20;0.20;;;-1.70;99.90;;;;;;5053704;28;20029;-72
2023/03/03 04:38:23;;;;;;;0.20;0.20;;;-1.80;99.90;;;;;;5054022;28;20026;-72
2023/03/03 04:40:49;;;;;;;0.20;0.20;;;-1.90;99.90;;;;;;5053245;28;20086;-72
2023/03/03 04:43:14;;;;;;;0.20;0.20;;;-2.00;99.90;;;;;;5054374;28;20494;-72
2023/03/03 04:45:40;;;;;;;0.20;0.20;;;-2.10;99.90;;;;;;5055811;28;20021;-72
2023/03/03 04:48:06;;;;;;;0.22;0.22;;;-2.00;99.90;;;;;;5057300;28;20043;-72
2023/03/03 04:50:31;;;;;;;0.20;0.20;;;-2.00;99.90;;;;;;5057352;28;20389;-72
2023/03/03 04:52:57;;;;;;;0.20;0.20;;;-1.80;99.90;;;;;;5056393;28;20031;-72
2023/03/03 04:55:22;;;;;;;0.20;0.20;;;-1.60;99.90;;;;;;5057527;28;20040;-72
2023/03/03 04:57:48;;;;;;;0.20;0.20;;;-1.40;99.90;;;;;;5056758;28;20482;-72
2023/03/03 05:00:14;;;;;;;0.22;0.22;;;-1.20;99.90;;;;;;5057544;28;20033;-72
2023/03/03 05:02:40;;;;;;;0.20;0.20;;;-1.10;99.90;;;;;;5056296;28;20090;-72
2023/03/03 05:05:08;;;;;;;0.10;0.10;;;-0.90;99.90;;;;;;5039715;28;20119;-72
2023/03/03 05:07:34;;;;;;;0.10;0.10;;;-0.60;99.90;;;;;;5038770;28;20506;-72
2023/03/03 05:10:00;;;;;;;0.20;0.20;;;-0.30;99.90;;;;;;5049987;28;20021;-72
2023/03/03 05:12:26;;;;;;;0.20;0.20;;;0.00;99.90;;;;;;5036985;28;20034;-72
2023/03/03 05:14:51;;;;;;;0.10;0.10;;;0.20;99.90;;;;;;5037034;28;20044;-72
2023/03/03 05:17:17;;;;;;;0.20;0.20;;;0.30;99.90;;;;;;5036856;28;20029;-72
2023/03/03 05:19:43;;;;;;;0.20;0.20;;;0.30;99.90;;;;;;5019077;28;20446;-72
2023/03/03 05:22:09;;;;;;;0.10;0.10;;;0.40;99.90;;;;;;5022293;28;20032;-72
2023/03/03 05:24:34;;;;;;;0.20;0.20;;;0.40;99.90;;;;;;5039616;28;20146;-72
2023/03/03 05:27:00;;;;;;;0.20;0.20;;;0.40;99.90;;;;;;5056674;28;20092;-72
2023/03/03 05:29:27;;;;;;;0.20;0.20;;;0.50;99.90;;;;;;5038639;28;20025;-72
2023/03/03 05:31:52;;;;;;;0.20;0.20;;;0.60;99.90;;;;;;5038305;28;20398;-72
2023/03/03 05:34:18;;;;;;;0.20;0.20;;;0.60;99.90;;;;;;5046028;28;20036;-72
2023/03/03 05:36:44;;;;;;;0.20;0.20;;;0.70;99.90;;;;;;5036732;28;20037;-72
2023/03/03 05:39:09;;;;;;;0.13;0.13;;;0.70;99.90;;;;;;5036405;28;20033;-72
2023/03/03 05:41:35;;;;;;;0.20;0.20;;;0.80;99.90;;;;;;5036590;28;20058;-72
2023/03/03 05:44:02;;;;;;;0.20;0.20;;;0.80;99.90;;;;;;5036125;28;20032;-72
2023/03/03 05:46:27;;;;;;;0.20;0.20;;;0.90;99.90;;;;;;5037092;28;20385;-72
2023/03/03 05:48:53;;;;;;;0.20;0.20;;;1.00;99.90;;;;;;5049434;28;20021;-72
2023/03/03 05:51:18;;;;;;;0.20;0.20;;;1.10;99.90;;;;;;5056347;28;20025;-72
2023/03/03 05:53:44;;;;;;;0.10;0.10;;;1.20;99.90;;;;;;5045649;28;20029;-72
2023/03/03 05:56:10;;;;;;;0.20;0.20;;;1.30;99.90;;;;;;5035884;28;20048;-72
2023/03/03 05:58:37;;;;;;;0.20;0.20;;;1.30;99.90;;;;;;5043307;28;20032;-72
2023/03/03 06:01:03;;;;;;;0.20;0.20;;;1.40;99.90;;;;;;5038135;28;20036;-72
2023/03/03 06:03:29;;;;;;;0.20;0.20;;;1.40;99.90;;;;;;5041121;28;20482;-72
2023/03/03 06:05:54;;;;;;;0.20;0.20;;;1.40;99.90;;;;;;5045486;28;20078;-72
2023/03/03 06:08:20;;;;;;;0.22;0.22;;;1.40;99.90;;;;;;5053937;28;20027;-72
2023/03/03 06:10:45;;;;;;;0.20;0.20;;;1.50;99.90;;;;;;5048074;28;20025;-72
2023/03/03 06:13:11;;;;;;;0.30;0.30;;;1.50;99.90;;;;;;5055868;28;20108;-72
2023/03/03 06:15:36;;;;;;;0.17;0.17;;;1.50;99.90;;;;;;5055083;28;20033;-72
2023/03/03 06:18:02;;;;;;;0.17;0.17;;;1.60;99.90;;;;;;5042373;28;20032;-72
2023/03/03 06:20:28;;;;;;;0.10;0.10;;;1.60;99.90;;;;;;5035597;28;20100;-72
2023/03/03 06:22:54;;;;;;;0.10;0.10;;;1.70;99.90;;;;;;5035794;28;20048;-72
2023/03/03 06:25:22;;;;;;;0.20;0.20;;;1.70;99.90;;;;;;5035562;28;20033;-72
2023/03/03 06:27:47;;;;;;;0.20;0.20;;;1.70;99.90;;;;;;5034744;28;20024;-72
2023/03/03 06:30:13;;;;;;;0.10;0.10;;;1.80;99.90;;;;;;5035814;28;20033;-72
2023/03/03 06:32:39;;;;;;;0.20;0.20;;;1.80;99.90;;;;;;5035533;28;20047;-72
2023/03/03 06:35:07;;;;;;;0.10;0.10;;;1.80;99.90;;;;;;5049002;28;20080;-72
2023/03/03 06:37:33;;;;;;;0.20;0.20;;;1.80;99.90;;;;;;5054131;28;20036;-72
2023/03/03 06:39:59;;;;;;;0.13;0.13;;;1.90;99.90;;;;;;5052774;28;20029;-72
2023/03/03 06:42:24;;;;;;;0.10;0.10;;;1.90;99.90;;;;;;5034045;28;20021;-72
2023/03/03 06:44:50;;;;;;;0.20;0.20;;;2.00;99.90;;;;;;5035285;28;20037;-72
2023/03/03 06:47:16;;;;;;;0.20;0.20;;;2.10;99.90;;;;;;5034715;28;20075;-72
2023/03/03 06:49:41;;;;;;;0.20;0.20;;;2.20;99.90;;;;;;5035472;28;20479;-72
2023/03/03 06:52:19;;;;;;;0.17;0.17;;;2.30;99.90;;;;;;5034769;28;20029;-72
2023/03/03 06:54:44;;;;;;;0.10;0.10;;;2.30;99.90;;;;;;5035144;28;20053;-72
2023/03/03 06:57:24;;;;;;;0.10;0.10;;;2.40;99.90;;;;;;5041010;28;20056;-72
2023/03/03 06:59:53;;;;;;;0.10;0.10;;;2.40;99.90;;;;;;5054650;28;20056;-72
2023/03/03 07:02:19;;;;;;;0.10;0.10;;;2.40;99.90;;;;;;5054419;28;20021;-72
2023/03/03 07:04:46;;;;;;;0.13;0.13;;;2.50;99.90;;;;;;5055147;28;20024;-72
2023/03/03 07:07:20;;;;;;;0.20;0.20;;;2.50;99.90;;;;;;5054656;28;20017;-72
2023/03/03 07:09:51;;;;;;;0.10;0.10;;;2.50;99.90;;;;;;5053618;28;20032;-72
2023/03/03 07:12:22;;;;;;;0.20;0.20;;;2.50;99.90;;;;;;5036584;28;20021;-72
2023/03/03 07:14:54;;;;;;;0.17;0.17;;;2.60;99.90;;;;;;5054525;28;20021;-72
2023/03/03 07:17:23;;;;;;;0.10;0.10;;;2.60;99.90;;;;;;5037357;28;20048;-72
2023/03/03 07:19:49;;;;;;;0.20;0.20;;;2.60;99.90;;;;;;5055359;28;20028;-72
2023/03/03 07:22:26;;;;;;;0.20;0.20;;;2.70;99.90;;;;;;5053997;28;20394;-72
2023/03/03 07:25:00;;;;;;;0.20;0.20;;;2.80;99.90;;;;;;5054545;28;20043;-73
2023/03/03 07:27:28;;;;;;;0.20;0.20;;;2.80;99.90;;;;;;5036868;28;20059;-72
2023/03/03 07:30:12;;;;;;;0.30;0.30;;;3.00;99.90;;;;;;5054457;28;20033;-71
2023/03/03 07:32:41;;;;;;;0.10;0.10;;;3.10;99.90;;;;;;5054364;28;20094;-71
2023/03/03 07:35:34;;;;;;;0.20;0.20;;;3.10;99.90;;;;;;5036968;28;20021;-72
2023/03/03 07:38:00;;;;;;;0.20;0.20;;;3.20;99.90;;;;;;5049969;28;20402;-72
2023/03/03 07:40:37;;;;;;;0.20;0.20;;;3.20;99.90;;;;;;5034601;28;20034;-71
2023/03/03 07:43:35;;;;;;;0.15;0.15;;;3.30;99.90;;;;;;5034050;28;20509;-72
2023/03/03 07:46:21;;;;;;;0.13;0.13;;;3.40;99.90;;;;;;5034980;28;20029;-72
2023/03/03 07:48:48;;;;;;;0.10;0.10;;;3.40;99.90;;;;;;5034441;28;20014;-71
2023/03/03 07:51:26;;;;;;;0.20;0.20;;;3.60;99.90;;;;;;5034356;28;20018;-70
2023/03/03 07:54:13;;;;;;;0.20;0.20;;;3.60;99.90;;;;;;5033580;28;20028;-71
2023/03/03 07:56:39;;;;;;;0.10;0.10;;;3.60;99.90;;;;;;5026451;28;20029;-71
2023/03/03 07:59:23;;;;;;;0.10;0.10;;;3.70;99.90;;;;;;5054299;28;20027;-70
2023/03/03 08:01:59;;;;;;;;;;;3.70;99.90;;;;;;5054702;28;20052;-70
2023/03/03 08:04:39;;;;;;;0.20;0.20;;;3.80;99.90;;;;;;5053701;28;19971;-70
2023/03/03 08:07:16;;;;;;;0.20;0.20;;;3.80;99.90;;;;;;5054012;28;20029;-70
2023/03/03 08:10:00;;;;;;;0.10;0.10;;;3.90;99.90;;;;;;5053565;28;20053;-70
2023/03/03 08:12:41;;;;;;;0.10;0.10;;;3.90;99.90;;;;;;5053996;28;20517;-70
2023/03/03 08:15:29;;;;;;;0.20;0.20;;;4.00;99.90;;;;;;5053863;28;20093;-70
2023/03/03 08:17:55;;;;;;;0.20;0.20;;;4.00;99.90;;;;;;5053690;28;20025;-70
2023/03/03 08:20:45;;;;;;;0.20;0.20;;;4.10;99.90;;;;;;5056246;28;20029;-70
2023/03/03 08:23:11;;;;;;;0.20;0.20;;;4.20;99.90;;;;;;5058310;28;20029;-70
2023/03/03 08:25:37;;;;;;;0.20;0.20;;;4.20;99.90;;;;;;5057560;28;20470;-70
2023/03/03 08:28:03;;;;;;;0.10;0.10;;;4.30;99.90;;;;;;5057703;28;20076;-70
2023/03/03 08:30:30;;;;;;;0.20;0.20;;;4.30;99.90;;;;;;5057369;28;20056;-70
2023/03/03 08:32:56;;;;;;;0.20;0.20;;;4.40;99.90;;;;;;5058080;28;20483;-70
2023/03/03 08:35:22;;;;;;;0.20;0.20;;;4.40;99.90;;;;;;5057773;28;20120;-70
2023/03/03 08:37:47;;;;;;;0.10;0.10;;;4.50;99.90;;;;;;5039669;28;20025;-70
2023/03/03 08:40:16;;;;;;;0.20;0.20;;;4.60;99.90;;;;;;5058246;28;20025;-70
2023/03/03 08:42:41;;;;;;;0.10;0.10;;;4.80;99.90;;;;;;5057198;28;20036;-70
2023/03/03 08:45:07;;;;;;;0.20;0.20;;;4.80;99.90;;;;;;5057915;28;20390;-70
2023/03/03 08:47:32;;;;;;;0.10;0.10;;;4.90;99.90;;;;;;5056919;28;20039;-70
2023/03/03 08:49:58;;;;;;;0.10;0.10;;;4.90;99.90;;;;;;5057875;28;20025;-70
2023/03/03 08:52:24;;;;;;;0.20;0.20;;;5.00;99.90;;;;;;5056427;28;20031;-70
2023/03/03 08:54:49;;;;;;;0.20;0.20;;;5.00;99.90;;;;;;5043183;28;20031;-71
2023/03/03 08:57:15;;;;;;;0.17;0.17;;;5.10;99.90;;;;;;5037163;28;20029;-71
2023/03/03 08:59:40;;;;;;;0.20;0.20;;;5.20;99.90;;;;;;5038090;28;20076;-70
2023/03/03 09:02:09;;;;;;;0.20;0.20;;;5.20;99.90;;;;;;5037257;28;20026;-70
2023/03/03 09:04:35;;;;;;;0.20;0.20;;;5.30;99.90;;;;;;5041910;28;20098;-71
2023/03/03 09:07:01;;;;;;;0.20;0.20;;;5.30;99.90;;;;;;5056937;28;20021;-71
2023/03/03 09:09:26;;;;;;;0.30;0.30;;;5.30;99.90;;;;;;5056661;28;20074;-71
2023/03/03 09:11:56;;;;;;;0.20;0.20;;;5.30;99.90;;;;;;5057387;28;20032;-71
2023/03/03 09:14:28;;;;;;;0.20;0.20;;;5.40;99.90;;;;;;5056530;28;20025;-70
2023/03/03 09:16:55;;;;;;;0.20;0.20;;;5.40;99.90;;;;;;5039064;28;20025;-71
2023/03/03 09:19:28;;;;;;;0.20;0.20;;;5.40;99.90;;;;;;5057045;28;20484;-70
2023/03/03 09:21:56;;;;;;;0.30;0.30;;;5.40;99.90;;;;;;5056330;28;20029;-70
2023/03/03 09:24:29;;;;;;;0.20;0.20;;;5.50;99.90;;;;;;5038762;28;20052;-70
2023/03/03 09:26:57;;;;;;;;;;;5.60;99.90;;;;;;5057121;28;20023;-70
2023/03/03 09:29:36;;;;;;;0.10;0.10;;;5.60;99.90;;;;;;5057208;28;19927;-70
2023/03/03 09:32:23;;;;;;;0.20;0.20;;;5.70;99.90;;;;;;5055471;28;20060;-70
2023/03/03 09:34:50;;;;;;;0.20;0.20;;;5.70;99.90;;;;;;5056254;28;20029;-70
2023/03/03 09:37:21;;;;;;;0.20;0.20;;;5.60;99.90;;;;;;5056484;28;20045;-71
2023/03/03 09:39:56;;;;;;;0.20;0.20;;;5.70;99.90;;;;;;5056163;28;20021;-70
2023/03/03 09:42:37;;;;;;;0.20;0.20;;;5.70;99.90;;;;;;5056428;28;20032;-70
2023/03/03 09:45:29;;;;;;;0.20;0.20;;;5.80;99.90;;;;;;5038542;28;20047;-70
2023/03/03 09:48:04;;;;;;;0.20;0.20;;;6.00;99.90;;;;;;5035013;28;20093;-70
2023/03/03 09:50:41;;;;;;;0.20;0.20;;;6.10;99.90;;;;;;5056585;28;20128;-70
2023/03/03 09:53:23;;;;;;;0.25;0.25;;;6.20;99.90;;;;;;5055128;28;20029;-70
2023/03/03 09:56:07;;;;;;;0.20;0.20;;;6.20;99.90;;;;;;5056229;28;20436;-70
2023/03/03 09:58:52;;;;;;;0.28;0.28;;;6.00;99.90;;;;;;5046157;28;20026;-70
2023/03/03 10:01:26;;;;;;;0.22;0.22;;;6.00;99.90;;;;;;5036232;28;20053;-70
2023/03/03 10:04:10;;;;;;;0.20;0.20;;;6.00;99.90;;;;;;5035672;28;20025;-70
2023/03/03 10:07:05;;;;;;;0.20;0.20;;;6.00;99.90;;;;;;5034463;28;20513;-70
2023/03/03 10:09:45;;;;;;;0.20;0.20;;;6.10;99.90;;;;;;5036118;28;20021;-70
2023/03/03 10:12:38;;;;;;;0.20;0.20;;;6.00;99.90;;;;;;5043964;28;20013;-70
2023/03/03 10:15:06;;;;;;;0.10;0.10;;;6.10;99.90;;;;;;5046826;28;20025;-70
2023/03/03 10:18:14;;;;;;;0.10;0.10;;;6.10;99.90;;;;;;5046356;28;20118;-70
2023/03/03 10:20:55;;;;;;;0.20;0.20;;;6.20;99.90;;;;;;5043596;28;20395;-70
2023/03/03 10:23:33;;;;;;;0.30;0.30;;;6.30;99.90;;;;;;5044159;28;20509;-70
2023/03/03 10:26:07;;;;;;;0.17;0.17;;;6.40;99.90;;;;;;5035428;28;20086;-70
2023/03/03 10:28:52;;;;;;;0.30;0.30;;;6.50;99.90;;;;;;5047346;28;20151;-70
2023/03/03 10:31:35;;;;;;;0.20;0.20;;;6.60;99.90;;;;;;5055360;28;20017;-70
2023/03/03 10:34:10;;;;;;;0.20;0.20;;;6.60;99.90;;;;;;5039699;28;20449;-70
2023/03/03 10:37:05;;;;;;;0.20;0.20;;;6.50;99.90;;;;;;5034914;28;20049;-70
2023/03/03 10:39:45;;;;;;;0.20;0.20;;;6.40;99.90;;;;;;5054819;28;20021;-70
2023/03/03 10:42:46;;;;;;;0.20;0.20;;;6.40;99.90;;;;;;5054959;28;20096;-70
2023/03/03 10:45:29;;;;;;;0.20;0.20;;;6.50;99.90;;;;;;5054223;28;20028;-70
2023/03/03 10:48:09;;;;;;;0.15;0.15;;;6.60;99.90;;;;;;5053980;28;20500;-70
2023/03/03 10:50:57;;;;;;;0.10;0.10;;;6.80;99.90;;;;;;5035434;28;20022;-70
2023/03/03 10:53:47;;;;;;;0.20;0.20;;;6.90;99.90;;;;;;5038536;28;20029;-70
2023/03/03 10:56:44;;;;;;;0.20;0.20;;;7.00;99.90;;;;;;5055035;28;20021;-71
2023/03/03 10:59:47;;;;;;;0.10;0.10;;;7.00;99.90;;;;;;5055302;28;20029;-70
2023/03/03 11:02:21;;;;;;;0.20;0.20;;;7.00;99.90;;;;;;5052929;28;20040;-70
2023/03/03 11:05:10;;;;;;;0.20;0.20;;;7.10;99.90;;;;;;5055081;28;20025;-70
2023/03/03 11:07:54;;;;;;;0.20;0.20;;;7.00;99.90;;;;;;5054368;28;20017;-70
2023/03/03 11:10:38;;;;;;;0.10;0.10;;;6.80;99.90;;;;;;5054988;28;20029;-70
2023/03/03 11:13:24;;;;;;;0.10;0.10;;;6.70;99.90;;;;;;5054881;28;20414;-70
2023/03/03 11:16:13;;;;;;;0.10;0.10;;;6.80;99.90;;;;;;5054852;28;20078;-70
2023/03/03 11:19:00;;;;;;;0.20;0.20;;;6.90;99.90;;;;;;5054327;28;20064;-70
2023/03/03 11:21:37;;;;;;;0.20;0.20;;;6.90;99.90;;;;;;5054159;28;20056;-70
2023/03/03 11:24:41;;;;;;;0.20;0.20;;;7.00;99.90;;;;;;5054301;28;20371;-71
2023/03/03 11:27:35;;;;;;;0.20;0.20;;;7.20;99.90;;;;;;5054770;28;20486;-70
2023/03/03 11:30:06;;;;;;;;;;;7.00;99.90;;;;;;5055080;28;20039;-70
2023/03/03 11:32:37;;;;;;;0.13;0.13;;;7.10;99.90;;;;;;5053707;28;19905;-70
2023/03/03 11:35:17;;;;;;;0.20;0.20;;;7.00;99.90;;;;;;5054396;28;20079;-70
2023/03/03 11:38:02;;;;;;;0.30;0.30;;;6.80;99.90;;;;;;5054641;28;20021;-70
2023/03/03 11:40:54;;;;;;;0.30;0.30;;;6.80;99.90;;;;;;5054506;28;20031;-71
2023/03/03 11:43:33;;;;;;;0.20;0.20;;;7.00;99.90;;;;;;5049866;28;20402;-70
2023/03/03 11:46:11;;;;;;;0.20;0.20;;;7.10;99.90;;;;;;5054138;28;20028;-70
2023/03/03 11:48:53;;;;;;;0.20;0.20;;;7.10;99.90;;;;;;5054250;28;20040;-70
2023/03/03 11:52:00;;;;;;;0.20;0.20;;;7.20;99.90;;;;;;5036941;28;20390;-70
2023/03/03 11:54:43;;;;;;;0.20;0.20;;;7.10;99.90;;;;;;5054440;28;20482;-70
2023/03/03 11:57:34;;;;;;;0.30;0.30;;;7.30;99.90;;;;;;5038581;28;20025;-70
2023/03/03 12:00:08;;;;;;;0.20;0.20;;;7.20;99.90;;;;;;5038136;28;20486;-69
2023/03/03 12:03:12;;;;;;;0.25;0.25;;;7.20;99.90;;;;;;5038600;28;20436;-70
2023/03/03 12:05:41;;;;;;;;;;;7.20;99.90;;;;;;5038008;28;20032;-69
2023/03/03 12:08:55;;;;;;;0.20;0.20;;;7.20;99.90;;;;;;5020545;28;19973;-69
2023/03/03 12:11:27;;;;;;;0.20;0.20;;;7.20;99.90;;;;;;4996827;28;20121;-69
2023/03/03 12:14:12;;;;;;;0.17;0.17;;;7.30;99.90;;;;;;5036770;28;20065;-69
2023/03/03 12:16:53;;;;;;;0.20;0.20;;;7.30;99.90;;;;;;5038317;28;20021;-69
2023/03/03 12:19:41;;;;;;;0.20;0.20;;;7.30;99.90;;;;;;5038462;28;20080;-69
2023/03/03 12:22:30;;;;;;;0.15;0.15;;;7.20;99.90;;;;;;5037873;28;20541;-69
2023/03/03 12:25:05;;;;;;;0.10;0.10;;;7.20;99.90;;;;;;5038172;28;20032;-69
2023/03/03 12:27:38;;;;;;;0.20;0.20;;;7.10;99.90;;;;;;5037241;28;20025;-70
2023/03/03 12:30:34;;;;;;;0.20;0.20;;;7.30;99.90;;;;;;5020305;28;20431;-70
2023/03/03 12:33:00;;;;;;;0.20;0.20;;;7.40;99.90;;;;;;5038476;28;20542;-70
2023/03/03 12:36:03;;;;;;;0.20;0.20;;;7.50;99.90;;;;;;5038410;28;20137;-70
2023/03/03 12:38:54;;;;;;;0.28;0.28;;;7.70;99.90;;;;;;5036058;28;20034;-70
2023/03/03 12:41:38;;;;;;;0.20;0.20;;;7.80;99.90;;;;;;5037885;28;20087;-70
2023/03/03 12:44:16;;;;;;;;;;;7.70;99.90;;;;;;5020205;28;20099;-70
2023/03/03 12:46:44;;;;;;;0.20;0.20;;;7.90;99.90;;;;;;5037574;28;19905;-70
2023/03/03 12:49:10;;;;;;;0.10;0.10;;;8.00;99.90;;;;;;5038547;28;20509;-70
2023/03/03 12:51:42;;;;;;;0.10;0.10;;;8.10;99.90;;;;;;5037141;28;20493;-70
2023/03/03 12:54:30;;;;;;;0.10;0.10;;;7.90;99.90;;;;;;5038102;28;20028;-70
2023/03/03 12:57:13;;;;;;;0.20;0.20;;;8.10;99.90;;;;;;5038321;28;20026;-70
2023/03/03 12:59:58;;;;;;;0.15;0.15;;;8.20;99.90;;;;;;5037452;28;20494;-70
2023/03/03 13:02:35;;;;;;;0.20;0.20;;;8.20;99.90;;;;;;5037701;28;20075;-70
2023/03/03 13:05:06;;;;;;;0.20;0.20;;;8.30;99.90;;;;;;5037253;28;20033;-69
2023/03/03 13:08:01;;;;;;;0.20;0.20;;;8.50;99.90;;;;;;5036224;28;20029;-70
2023/03/03 13:10:34;;;;;;;0.10;0.10;;;8.80;99.90;;;;;;5037801;28;20079;-70
2023/03/03 13:13:33;;;;;;;0.23;0.23;;;9.10;99.90;;;;;;5037218;28;20479;-72
2023/03/03 13:16:08;;;;;;;0.20;0.20;;;9.40;99.90;;;;;;5037137;28;20029;-71
2023/03/03 13:18:53;;;;;;;0.20;0.20;;;9.40;99.90;;;;;;5037267;28;20053;-71
2023/03/03 13:21:39;;;;;;;0.20;0.20;;;9.40;99.90;;;;;;5037431;28;20029;-71
2023/03/03 13:24:36;;;;;;;0.20;0.20;;;9.50;99.90;;;;;;5037340;28;20391;-71